sensor_id;sensor_type;location;lat;lon;timestamp;pressure;altitude;pressure_sealevel;temperature;humidity
45621;BME280;31345;51.522;10.702;2024-01-30T00:00:08;100436.09;;;0.07;100.00
45621;BME280;31345;51.522;10.702;2024-01-30T00:02:43;100437.81;;;-0.01;100.00
45621;BME280;31345;51.522;10.702;2024-01-30T00:05:18;100433.53;;;0.06;100.00
45621;BME280;31345;51.522;10.702;2024-01-30T00:07:50;100430.09;;;0.07;100.00
45621;BME280;31345;51.522;10.702;2024-01-30T00:10:23;100431.81;;;0.08;100.00
45621;BME280;31345;51.522;10.702;2024-01-30T00:12:55;100431.81;;;0.13;100.00
45621;BME280;31345;51.522;10.702;2024-01-30T00:15:28;100429.25;;;0.03;100.00
45621;BME280;31345;51.522;10.702;2024-01-30T00:18:00;100429.22;;;0.10;100.00
45621;BME280;31345;51.522;10.702;2024-01-30T00:20:34;100422.38;;;0.18;100.00
45621;BME280;31345;51.522;10.702;2024-01-30T00:23:07;100431.81;;;0.14;100.00
45621;BME280;31345;51.522;10.702;2024-01-30T00:25:39;100430.97;;;0.06;100.00
45621;BME280;31345;51.522;10.702;2024-01-30T00:28:12;100436.06;;;0.14;100.00
45621;BME280;31345;51.522;10.702;2024-01-30T00:30:44;100433.53;;;0.06;100.00
45621;BME280;31345;51.522;10.702;2024-01-30T00:33:17;100425.81;;;0.09;100.00
45621;BME280;31345;51.522;10.702;2024-01-30T00:35:46;100427.53;;;-0.02;100.00
45621;BME280;31345;51.522;10.702;2024-01-30T00:38:14;100419.81;;;-0.24;100.00
45621;BME280;31345;51.522;10.702;2024-01-30T00:40:46;100416.38;;;-0.17;100.00
45621;BME280;31345;51.522;10.702;2024-01-30T00:43:19;100422.38;;;-0.38;100.00
45621;BME280;31345;51.522;10.702;2024-01-30T00:45:52;100426.69;;;-0.48;100.00
45621;BME280;31345;51.522;10.702;2024-01-30T00:48:20;100430.09;;;-0.41;100.00
45621;BME280;31345;51.522;10.702;2024-01-30T00:50:49;100428.41;;;-0.30;100.00
45621;BME280;31345;51.522;10.702;2024-01-30T00:53:21;100428.38;;;-0.38;100.00
45621;BME280;31345;51.522;10.702;2024-01-30T00:55:54;100433.53;;;-0.46;100.00
45621;BME280;31345;51.522;10.702;2024-01-30T00:58:26;100422.41;;;-0.32;100.00
45621;BME280;31345;51.522;10.702;2024-01-30T01:00:59;100422.41;;;-0.20;100.00
45621;BME280;31345;51.522;10.702;2024-01-30T01:03:31;100412.97;;;-0.28;100.00
45621;BME280;31345;51.522;10.702;2024-01-30T01:06:00;100411.28;;;-0.36;100.00
45621;BME280;31345;51.522;10.702;2024-01-30T01:08:33;100418.94;;;-0.47;100.00
45621;BME280;31345;51.522;10.702;2024-01-30T01:11:00;100413.84;;;-0.34;100.00
45621;BME280;31345;51.522;10.702;2024-01-30T01:13:34;100417.25;;;-0.55;100.00
45621;BME280;31345;51.522;10.702;2024-01-30T01:16:07;100424.09;;;-0.43;100.00
45621;BME280;31345;51.522;10.702;2024-01-30T01:18:39;100424.94;;;-0.48;100.00
45621;BME280;31345;51.522;10.702;2024-01-30T01:21:13;100415.53;;;-0.41;100.00
45621;BME280;31345;51.522;10.702;2024-01-30T01:23:40;100408.69;;;-0.37;100.00
45621;BME280;31345;51.522;10.702;2024-01-30T01:26:13;100407.84;;;-0.33;100.00
45621;BME280;31345;51.522;10.702;2024-01-30T01:28:45;100401.84;;;-0.40;100.00
45621;BME280;31345;51.522;10.702;2024-01-30T01:31:18;100408.69;;;-0.36;100.00
45621;BME280;31345;51.522;10.702;2024-01-30T01:33:53;100408.69;;;-0.37;100.00
45621;BME280;31345;51.522;10.702;2024-01-30T01:36:27;100414.69;;;-0.30;100.00
45621;BME280;31345;51.522;10.702;2024-01-30T01:39:00;100412.97;;;-0.28;100.00
45621;BME280;31345;51.522;10.702;2024-01-30T01:41:32;100415.53;;;-0.38;100.00
45621;BME280;31345;51.522;10.702;2024-01-30T01:44:00;100414.66;;;-0.49;100.00
45621;BME280;31345;51.522;10.702;2024-01-30T01:46:33;100406.09;;;-0.61;100.00
45621;BME280;31345;51.522;10.702;2024-01-30T01:49:06;100403.53;;;-0.56;100.00
45621;BME280;31345;51.522;10.702;2024-01-30T01:51:36;100409.53;;;-0.48;100.00
45621;BME280;31345;51.522;10.702;2024-01-30T01:54:08;100411.22;;;-0.58;100.00
45621;BME280;31345;51.522;10.702;2024-01-30T01:56:36;100395.84;;;-0.48;100.00
45621;BME280;31345;51.522;10.702;2024-01-30T01:59:06;100396.69;;;-0.46;100.00
45621;BME280;31345;51.522;10.702;2024-01-30T02:01:36;100400.09;;;-0.64;100.00
45621;BME280;31345;51.522;10.702;2024-01-30T02:04:05;100394.94;;;-0.57;100.00
45621;BME280;31345;51.522;10.702;2024-01-30T02:06:33;100397.50;;;-0.69;100.00
45621;BME280;31345;51.522;10.702;2024-01-30T02:09:08;100390.69;;;-0.76;100.00
45621;BME280;31345;51.522;10.702;2024-01-30T02:11:35;100386.38;;;-0.76;100.00
45621;BME280;31345;51.522;10.702;2024-01-30T02:14:05;100400.91;;;-0.86;100.00
45621;BME280;31345;51.522;10.702;2024-01-30T02:16:32;100398.34;;;-0.92;100.00
45621;BME280;31345;51.522;10.702;2024-01-30T02:19:00;100412.88;;;-1.00;100.00
45621;BME280;31345;51.522;10.702;2024-01-30T02:21:29;100402.59;;;-0.94;100.00
45621;BME280;31345;51.522;10.702;2024-01-30T02:24:03;100409.44;;;-0.99;100.00
45621;BME280;31345;51.522;10.702;2024-01-30T02:26:31;100400.91;;;-0.93;100.00
45621;BME280;31345;51.522;10.702;2024-01-30T02:29:03;100391.50;;;-0.85;100.00
45621;BME280;31345;51.522;10.702;2024-01-30T02:31:31;100394.03;;;-0.91;100.00
45621;BME280;31345;51.522;10.702;2024-01-30T02:34:04;100400.94;;;-0.76;100.00
45621;BME280;31345;51.522;10.702;2024-01-30T02:36:37;100399.19;;;-0.79;100.00
45621;BME280;31345;51.522;10.702;2024-01-30T02:39:05;100388.09;;;-0.72;100.00
45621;BME280;31345;51.522;10.702;2024-01-30T02:41:37;100398.34;;;-0.86;100.00
45621;BME280;31345;51.522;10.702;2024-01-30T02:44:10;100389.78;;;-0.86;100.00
45621;BME280;31345;51.522;10.702;2024-01-30T02:46:42;100387.22;;;-0.85;100.00
45621;BME280;31345;51.522;10.702;2024-01-30T02:49:15;100382.97;;;-0.78;100.00
45621;BME280;31345;51.522;10.702;2024-01-30T02:51:49;100391.53;;;-0.82;100.00
45621;BME280;31345;51.522;10.702;2024-01-30T02:54:17;100380.41;;;-0.65;100.00
45621;BME280;31345;51.522;10.702;2024-01-30T02:56:49;100367.59;;;-0.48;100.00
45621;BME280;31345;51.522;10.702;2024-01-30T02:59:17;100376.13;;;-0.55;100.00
45621;BME280;31345;51.522;10.702;2024-01-30T03:01:44;100369.28;;;-0.61;100.00
45621;BME280;31345;51.522;10.702;2024-01-30T03:04:17;100386.38;;;-0.71;100.00
45621;BME280;31345;51.522;10.702;2024-01-30T03:06:51;100370.13;;;-0.59;100.00
45621;BME280;31345;51.522;10.702;2024-01-30T03:09:19;100377.84;;;-0.53;100.00
45621;BME280;31345;51.522;10.702;2024-01-30T03:11:51;100367.56;;;-0.50;100.00
45621;BME280;31345;51.522;10.702;2024-01-30T03:14:24;100365.00;;;-0.40;100.00
45621;BME280;31345;51.522;10.702;2024-01-30T03:16:56;100371.84;;;-0.52;100.00
45621;BME280;31345;51.522;10.702;2024-01-30T03:19:29;100374.41;;;-0.69;100.00
45621;BME280;31345;51.522;10.702;2024-01-30T03:22:03;100363.28;;;-0.51;100.00
45621;BME280;31345;51.522;10.702;2024-01-30T03:24:30;100351.28;;;-0.38;100.00
45621;BME280;31345;51.522;10.702;2024-01-30T03:27:03;100352.13;;;-0.47;100.00
45621;BME280;31345;51.522;10.702;2024-01-30T03:29:35;100360.72;;;-0.57;100.00
45621;BME280;31345;51.522;10.702;2024-01-30T03:32:08;100361.56;;;-0.57;100.00
45621;BME280;31345;51.522;10.702;2024-01-30T03:34:41;100355.59;;;-0.45;100.00
45621;BME280;31345;51.522;10.702;2024-01-30T03:37:10;100353.84;;;-0.38;100.00
45621;BME280;31345;51.522;10.702;2024-01-30T03:39:42;100348.72;;;-0.38;100.00
45621;BME280;31345;51.522;10.702;2024-01-30T03:42:10;100349.56;;;-0.45;100.00
45621;BME280;31345;51.522;10.702;2024-01-30T03:44:38;100348.72;;;-0.53;100.00
45621;BME280;31345;51.522;10.702;2024-01-30T03:47:11;100348.72;;;-0.69;100.00
45621;BME280;31345;51.522;10.702;2024-01-30T03:49:43;100347.00;;;-0.67;100.00
45621;BME280;31345;51.522;10.702;2024-01-30T03:52:17;100342.72;;;-0.71;100.00
45621;BME280;31345;51.522;10.702;2024-01-30T03:54:45;100349.56;;;-0.83;100.00
45621;BME280;31345;51.522;10.702;2024-01-30T03:57:17;100350.41;;;-0.85;100.00
45621;BME280;31345;51.522;10.702;2024-01-30T03:59:45;100334.16;;;-0.79;100.00
45621;BME280;31345;51.522;10.702;2024-01-30T04:02:17;100341.00;;;-0.67;100.00
45621;BME280;31345;51.522;10.702;2024-01-30T04:04:50;100337.59;;;-0.69;100.00
45621;BME280;31345;51.522;10.702;2024-01-30T04:07:24;100341.00;;;-0.83;100.00
45621;BME280;31345;51.522;10.702;2024-01-30T04:09:56;100341.00;;;-0.81;100.00
45621;BME280;31345;51.522;10.702;2024-01-30T04:12:23;100331.59;;;-0.75;100.00
45621;BME280;31345;51.522;10.702;2024-01-30T04:14:51;100340.13;;;-0.88;100.00
45621;BME280;31345;51.522;10.702;2024-01-30T04:17:24;100338.44;;;-0.81;100.00
45621;BME280;31345;51.522;10.702;2024-01-30T04:19:52;100347.00;;;-0.70;100.00
45621;BME280;31345;51.522;10.702;2024-01-30T04:22:25;100341.88;;;-0.64;100.00
45621;BME280;31345;51.522;10.702;2024-01-30T04:24:58;100337.59;;;-0.62;100.00
45621;BME280;31345;51.522;10.702;2024-01-30T04:27:30;100335.88;;;-0.61;100.00
45621;BME280;31345;51.522;10.702;2024-01-30T04:30:04;100340.13;;;-0.99;100.00
45621;BME280;31345;51.522;10.702;2024-01-30T04:32:32;100333.31;;;-0.75;100.00
45621;BME280;31345;51.522;10.702;2024-01-30T04:34:59;100330.75;;;-0.75;100.00
45621;BME280;31345;51.522;10.702;2024-01-30T04:37:28;100332.41;;;-0.91;100.00
45621;BME280;31345;51.522;10.702;2024-01-30T04:39:56;100329.84;;;-0.90;100.00
45621;BME280;31345;51.522;10.702;2024-01-30T04:42:28;100334.16;;;-0.84;100.00
45621;BME280;31345;51.522;10.702;2024-01-30T04:45:01;100333.28;;;-0.89;100.00
45621;BME280;31345;51.522;10.702;2024-01-30T04:47:29;100323.88;;;-0.86;100.00
45621;BME280;31345;51.522;10.702;2024-01-30T04:50:01;100329.03;;;-0.79;100.00
45621;BME280;31345;51.522;10.702;2024-01-30T04:52:32;100323.84;;;-0.90;100.00
45621;BME280;31345;51.522;10.702;2024-01-30T04:54:59;100323.03;;;-0.80;100.00
45621;BME280;31345;51.522;10.702;2024-01-30T04:57:27;100321.31;;;-0.93;100.00
45621;BME280;31345;51.522;10.702;2024-01-30T04:59:54;100320.44;;;-0.81;100.00
45621;BME280;31345;51.522;10.702;2024-01-30T05:02:27;100323.88;;;-0.84;100.00
45621;BME280;31345;51.522;10.702;2024-01-30T05:04:59;100324.75;;;-0.63;100.00
45621;BME280;31345;51.522;10.702;2024-01-30T05:07:33;100324.75;;;-0.63;100.00
45621;BME280;31345;51.522;10.702;2024-01-30T05:10:06;100328.19;;;-0.64;100.00
45621;BME280;31345;51.522;10.702;2024-01-30T05:12:34;100336.72;;;-0.81;100.00
45621;BME280;31345;51.522;10.702;2024-01-30T05:15:02;100330.75;;;-0.74;100.00
45621;BME280;31345;51.522;10.702;2024-01-30T05:17:29;100332.47;;;-0.68;100.00
45621;BME280;31345;51.522;10.702;2024-01-30T05:19:57;100331.59;;;-0.67;100.00
45621;BME280;31345;51.522;10.702;2024-01-30T05:22:29;100336.72;;;-0.70;100.00
45621;BME280;31345;51.522;10.702;2024-01-30T05:24:58;100337.59;;;-0.69;100.00
45621;BME280;31345;51.522;10.702;2024-01-30T05:27:31;100338.44;;;-0.80;100.00
45621;BME280;31345;51.522;10.702;2024-01-30T05:30:04;100337.59;;;-0.73;100.00
45621;BME280;31345;51.522;10.702;2024-01-30T05:32:37;100341.00;;;-0.81;100.00
45621;BME280;31345;51.522;10.702;2024-01-30T05:35:06;100346.13;;;-0.69;100.00
45621;BME280;31345;51.522;10.702;2024-01-30T05:37:39;100341.00;;;-0.66;100.00
45621;BME280;31345;51.522;10.702;2024-01-30T05:40:13;100338.47;;;-0.72;100.00
45621;BME280;31345;51.522;10.702;2024-01-30T05:42:46;100353.81;;;-0.83;100.00
45621;BME280;31345;51.522;10.702;2024-01-30T05:45:18;100342.72;;;-0.88;100.00
45621;BME280;31345;51.522;10.702;2024-01-30T05:47:51;100336.72;;;-0.72;100.00
45621;BME280;31345;51.522;10.702;2024-01-30T05:50:23;100342.69;;;-0.80;100.00
45621;BME280;31345;51.522;10.702;2024-01-30T05:52:57;100339.28;;;-0.89;100.00
45621;BME280;31345;51.522;10.702;2024-01-30T05:55:31;100336.72;;;-0.95;100.00
45621;BME280;31345;51.522;10.702;2024-01-30T05:58:03;100334.16;;;-0.83;100.00
45621;BME280;31345;51.522;10.702;2024-01-30T06:00:36;100343.56;;;-0.92;100.00
45621;BME280;31345;51.522;10.702;2024-01-30T06:03:04;100341.00;;;-0.92;100.00
45621;BME280;31345;51.522;10.702;2024-01-30T06:05:36;100344.41;;;-0.95;100.00
45621;BME280;31345;51.522;10.702;2024-01-30T06:08:09;100341.81;;;-1.12;100.00
45621;BME280;31345;51.522;10.702;2024-01-30T06:10:42;100340.91;;;-1.27;100.00
45621;BME280;31345;51.522;10.702;2024-01-30T06:13:15;100339.22;;;-1.18;100.00
45621;BME280;31345;51.522;10.702;2024-01-30T06:15:47;100344.31;;;-1.28;100.00
45621;BME280;31345;51.522;10.702;2024-01-30T06:18:20;100340.03;;;-1.32;100.00
45621;BME280;31345;51.522;10.702;2024-01-30T06:20:48;100337.50;;;-1.27;100.00
45621;BME280;31345;51.522;10.702;2024-01-30T06:23:15;100340.94;;;-1.20;100.00
45621;BME280;31345;51.522;10.702;2024-01-30T06:25:49;100340.09;;;-1.16;100.00
45621;BME280;31345;51.522;10.702;2024-01-30T06:28:16;100340.09;;;-1.12;100.00
45621;BME280;31345;51.522;10.702;2024-01-30T06:30:49;100336.69;;;-1.06;100.00
45621;BME280;31345;51.522;10.702;2024-01-30T06:33:16;100335.81;;;-1.14;100.00
45621;BME280;31345;51.522;10.702;2024-01-30T06:35:49;100333.22;;;-1.28;100.00
45621;BME280;31345;51.522;10.702;2024-01-30T06:38:16;100330.69;;;-1.17;100.00
45621;BME280;31345;51.522;10.702;2024-01-30T06:40:50;100328.00;;;-1.52;100.00
45621;BME280;31345;51.522;10.702;2024-01-30T06:43:23;100340.88;;;-1.42;100.00
45621;BME280;31345;51.522;10.702;2024-01-30T06:45:55;100337.41;;;-1.55;100.00
45621;BME280;31345;51.522;10.702;2024-01-30T06:48:28;100332.31;;;-1.41;100.00
45621;BME280;31345;51.522;10.702;2024-01-30T06:51:00;100345.09;;;-1.49;100.00
45621;BME280;31345;51.522;10.702;2024-01-30T06:53:33;100340.84;;;-1.39;100.00
45621;BME280;31345;51.522;10.702;2024-01-30T06:56:08;100345.16;;;-1.38;100.00
45621;BME280;31345;51.522;10.702;2024-01-30T06:58:40;100336.56;;;-1.43;100.00
45621;BME280;31345;51.522;10.702;2024-01-30T07:01:13;100342.59;;;-1.30;100.00
45621;BME280;31345;51.522;10.702;2024-01-30T07:03:40;100334.09;;;-1.20;100.00
45621;BME280;31345;51.522;10.702;2024-01-30T07:06:08;100341.72;;;-1.40;100.00
45621;BME280;31345;51.522;10.702;2024-01-30T07:08:41;100337.44;;;-1.37;100.00
45621;BME280;31345;51.522;10.702;2024-01-30T07:11:10;100348.59;;;-1.33;100.00
45621;BME280;31345;51.522;10.702;2024-01-30T07:13:38;100340.03;;;-1.30;100.00
45621;BME280;31345;51.522;10.702;2024-01-30T07:16:11;100346.03;;;-1.33;100.00
45621;BME280;31345;51.522;10.702;2024-01-30T07:18:43;100341.75;;;-1.31;100.00
45621;BME280;31345;51.522;10.702;2024-01-30T07:21:16;100339.22;;;-1.23;100.00
45621;BME280;31345;51.522;10.702;2024-01-30T07:23:49;100339.22;;;-1.14;100.00
45621;BME280;31345;51.522;10.702;2024-01-30T07:26:18;100346.06;;;-1.17;100.00
45621;BME280;31345;51.522;10.702;2024-01-30T07:28:46;100333.25;;;-1.08;100.00
45621;BME280;31345;51.522;10.702;2024-01-30T07:31:13;100337.50;;;-1.24;100.00
45621;BME280;31345;51.522;10.702;2024-01-30T07:33:41;100335.81;;;-1.14;100.00
45621;BME280;31345;51.522;10.702;2024-01-30T07:36:09;100341.81;;;-1.01;100.00
45621;BME280;31345;51.522;10.702;2024-01-30T07:38:37;100329.00;;;-0.89;100.00
45621;BME280;31345;51.522;10.702;2024-01-30T07:41:04;100331.59;;;-0.81;100.00
45621;BME280;31345;51.522;10.702;2024-01-30T07:43:39;100328.16;;;-0.83;100.00
45621;BME280;31345;51.522;10.702;2024-01-30T07:46:06;100329.88;;;-0.73;100.00
45621;BME280;31345;51.522;10.702;2024-01-30T07:48:34;100333.31;;;-0.57;100.00
45621;BME280;31345;51.522;10.702;2024-01-30T07:51:06;100336.75;;;-0.53;100.00
45621;BME280;31345;51.522;10.702;2024-01-30T07:53:39;100336.75;;;-0.51;100.00
45621;BME280;31345;51.522;10.702;2024-01-30T07:56:13;100332.44;;;-0.46;100.00
45621;BME280;31345;51.522;10.702;2024-01-30T07:58:47;100333.31;;;-0.38;100.00
45621;BME280;31345;51.522;10.702;2024-01-30T08:04:17;100333.25;;;-0.11;100.00
45621;BME280;31345;51.522;10.702;2024-01-30T08:06:49;100335.00;;;-0.12;100.00
45621;BME280;31345;51.522;10.702;2024-01-30T08:09:17;100334.13;;;-0.15;100.00
45621;BME280;31345;51.522;10.702;2024-01-30T08:11:44;100331.53;;;-0.03;100.00
45621;BME280;31345;51.522;10.702;2024-01-30T08:14:18;100326.41;;;0.05;100.00
45621;BME280;31345;51.522;10.702;2024-01-30T08:16:51;100324.66;;;0.07;100.00
45621;BME280;31345;51.522;10.702;2024-01-30T08:19:24;100328.09;;;0.12;100.00
45621;BME280;31345;51.522;10.702;2024-01-30T08:21:56;100328.94;;;0.13;100.00
45621;BME280;31345;51.522;10.702;2024-01-30T08:24:29;100323.78;;;0.19;100.00
45621;BME280;31345;51.522;10.702;2024-01-30T08:27:01;100320.28;;;0.31;100.00
45621;BME280;31345;51.522;10.702;2024-01-30T08:29:37;100320.28;;;0.39;100.00
45621;BME280;31345;51.522;10.702;2024-01-30T08:32:06;100323.69;;;0.44;100.00
45621;BME280;31345;51.522;10.702;2024-01-30T08:34:33;100323.69;;;0.39;100.00
45621;BME280;31345;51.522;10.702;2024-01-30T08:37:06;100313.31;;;0.59;100.00
45621;BME280;31345;51.522;10.702;2024-01-30T08:39:33;100323.56;;;0.69;100.00
45621;BME280;31345;51.522;10.702;2024-01-30T08:42:06;100320.97;;;0.75;100.00
45621;BME280;31345;51.522;10.702;2024-01-30T08:44:40;100321.78;;;0.83;100.00
45621;BME280;31345;51.522;10.702;2024-01-30T08:47:13;100324.34;;;0.83;100.00
45621;BME280;31345;51.522;10.702;2024-01-30T08:49:47;100316.56;;;0.93;100.00
45621;BME280;31345;51.522;10.702;2024-01-30T08:52:19;100323.41;;;0.95;100.00
45621;BME280;31345;51.522;10.702;2024-01-30T08:54:52;100325.03;;;1.12;100.00
45621;BME280;31345;51.522;10.702;2024-01-30T08:57:20;100324.09;;;1.21;100.00
45621;BME280;31345;51.522;10.702;2024-01-30T08:59:49;100329.16;;;1.33;100.00
45621;BME280;31345;51.522;10.702;2024-01-30T09:02:21;100323.31;;;1.11;100.00
45621;BME280;31345;51.522;10.702;2024-01-30T09:04:54;100319.03;;;1.08;100.00
45621;BME280;31345;51.522;10.702;2024-01-30T09:07:26;100324.19;;;1.10;100.00
45621;BME280;31345;51.522;10.702;2024-01-30T09:09:59;100323.31;;;1.11;100.00
45621;BME280;31345;51.522;10.702;2024-01-30T09:12:31;100331.00;;;1.20;100.00
45621;BME280;31345;51.522;10.702;2024-01-30T09:15:06;100331.00;;;1.17;100.00
45621;BME280;31345;51.522;10.702;2024-01-30T09:17:39;100336.97;;;1.22;100.00
45621;BME280;31345;51.522;10.702;2024-01-30T09:20:11;100327.44;;;1.35;100.00
45621;BME280;31345;51.522;10.702;2024-01-30T09:22:39;100327.38;;;1.42;100.00
45621;BME280;31345;51.522;10.702;2024-01-30T09:25:11;100324.66;;;1.62;100.00
45621;BME280;31345;51.522;10.702;2024-01-30T09:27:44;100324.63;;;1.65;100.00
45621;BME280;31345;51.522;10.702;2024-01-30T09:30:18;100333.94;;;1.79;100.00
45621;BME280;31345;51.522;10.702;2024-01-30T09:32:50;100330.41;;;1.91;100.00
45621;BME280;31345;51.522;10.702;2024-01-30T09:35:23;100328.66;;;1.93;100.00
45621;BME280;31345;51.522;10.702;2024-01-30T09:37:55;100337.16;;;1.99;100.00
45621;BME280;31345;51.522;10.702;2024-01-30T09:40:28;100335.31;;;2.16;100.00
45621;BME280;31345;51.522;10.702;2024-01-30T09:42:56;100337.69;;;2.34;100.00
45621;BME280;31345;51.522;10.702;2024-01-30T09:45:32;100334.09;;;2.46;100.00
45621;BME280;31345;51.522;10.702;2024-01-30T09:48:06;100330.63;;;2.47;100.00
45621;BME280;31345;51.522;10.702;2024-01-30T09:50:38;100328.75;;;2.60;100.00
45621;BME280;31345;51.522;10.702;2024-01-30T09:53:13;100328.59;;;2.71;100.00
45621;BME280;31345;51.522;10.702;2024-01-30T09:55:47;100329.50;;;2.67;100.00
45621;BME280;31345;51.522;10.702;2024-01-30T09:58:14;100337.22;;;2.70;100.00
45621;BME280;31345;51.522;10.702;2024-01-30T10:00:43;100336.19;;;2.82;100.00
45621;BME280;31345;51.522;10.702;2024-01-30T10:03:11;100327.50;;;2.89;100.00
45621;BME280;31345;51.522;10.702;2024-01-30T10:05:41;100331.03;;;2.82;100.00
45621;BME280;31345;51.522;10.702;2024-01-30T10:08:08;100334.50;;;2.81;100.00
45621;BME280;31345;51.522;10.702;2024-01-30T10:10:36;100336.88;;;2.95;100.00
45621;BME280;31345;51.522;10.702;2024-01-30T10:13:03;100325.38;;;3.18;100.00
45621;BME280;31345;51.522;10.702;2024-01-30T10:15:31;100324.28;;;3.32;100.00
45621;BME280;31345;51.522;10.702;2024-01-30T10:18:08;100324.25;;;3.35;100.00
45621;BME280;31345;51.522;10.702;2024-01-30T10:20:36;100334.19;;;3.60;100.00
45621;BME280;31345;51.522;10.702;2024-01-30T10:23:09;100324.00;;;3.50;100.00
45621;BME280;31345;51.522;10.702;2024-01-30T10:25:42;100327.44;;;3.51;100.00
45621;BME280;31345;51.522;10.702;2024-01-30T10:28:09;100332.16;;;3.79;100.00
45621;BME280;31345;51.522;10.702;2024-01-30T10:30:42;100324.09;;;3.94;100.00
45621;BME280;31345;51.522;10.702;2024-01-30T10:33:11;100322.31;;;3.98;100.00
45621;BME280;31345;51.522;10.702;2024-01-30T10:35:44;100323.19;;;3.97;100.00
45621;BME280;31345;51.522;10.702;2024-01-30T10:38:15;100324.84;;;4.01;100.00
45621;BME280;31345;51.522;10.702;2024-01-30T10:40:45;100316.91;;;4.09;100.00
45621;BME280;31345;51.522;10.702;2024-01-30T10:43:21;100313.16;;;4.24;100.00
45621;BME280;31345;51.522;10.702;2024-01-30T10:45:52;100315.53;;;4.37;100.00
45621;BME280;31345;51.522;10.702;2024-01-30T10:48:30;100311.84;;;4.47;100.00
45621;BME280;31345;51.522;10.702;2024-01-30T10:51:02;100306.72;;;4.44;100.00
45621;BME280;31345;51.522;10.702;2024-01-30T10:53:31;100311.84;;;4.47;100.00
45621;BME280;31345;51.522;10.702;2024-01-30T10:56:04;100303.00;;;4.59;100.00
45621;BME280;31345;51.522;10.702;2024-01-30T10:58:32;100305.50;;;4.62;100.00
45621;BME280;31345;51.522;10.702;2024-01-30T11:01:06;100293.38;;;4.64;100.00
45621;BME280;31345;51.522;10.702;2024-01-30T11:03:41;100298.34;;;4.73;100.00
45621;BME280;31345;51.522;10.702;2024-01-30T11:06:14;100295.88;;;4.69;100.00
45621;BME280;31345;51.522;10.702;2024-01-30T11:08:44;100289.38;;;4.89;100.00
45621;BME280;31345;51.522;10.702;2024-01-30T11:11:17;100289.19;;;4.96;100.00
45621;BME280;31345;51.522;10.702;2024-01-30T11:13:49;100284.53;;;5.13;100.00
45621;BME280;31345;51.522;10.702;2024-01-30T11:16:22;100281.59;;;5.27;100.00
45621;BME280;31345;51.522;10.702;2024-01-30T11:18:51;100280.41;;;5.39;100.00
45621;BME280;31345;51.522;10.702;2024-01-30T11:21:25;100277.50;;;5.51;100.00
45621;BME280;31345;51.522;10.702;2024-01-30T11:23:54;100282.94;;;5.75;100.00
45621;BME280;31345;51.522;10.702;2024-01-30T11:26:28;100273.09;;;5.88;100.00
45621;BME280;31345;51.522;10.702;2024-01-30T11:28:56;100265.28;;;5.89;100.00
45621;BME280;31345;51.522;10.702;2024-01-30T11:31:28;100267.19;;;5.83;100.00
45621;BME280;31345;51.522;10.702;2024-01-30T11:34:03;100264.00;;;6.05;100.00
45621;BME280;31345;51.522;10.702;2024-01-30T11:36:36;100257.41;;;6.23;100.00
45621;BME280;31345;51.522;10.702;2024-01-30T11:39:10;100254.34;;;6.40;100.00
45621;BME280;31345;51.522;10.702;2024-01-30T11:41:43;100253.44;;;6.41;99.46
45621;BME280;31345;51.522;10.702;2024-01-30T11:44:18;100247.13;;;6.50;100.00
45621;BME280;31345;51.522;10.702;2024-01-30T11:46:52;100233.78;;;6.61;99.85
45621;BME280;31345;51.522;10.702;2024-01-30T11:49:21;100239.50;;;6.72;98.76
45621;BME280;31345;51.522;10.702;2024-01-30T11:51:49;100236.84;;;6.74;97.64
45621;BME280;31345;51.522;10.702;2024-01-30T11:54:21;100236.34;;;6.91;97.79
45621;BME280;31345;51.522;10.702;2024-01-30T11:56:54;100231.56;;;7.04;97.37
45621;BME280;31345;51.522;10.702;2024-01-30T11:59:26;100228.63;;;7.15;97.62
45621;BME280;31345;51.522;10.702;2024-01-30T12:01:59;100228.28;;;6.99;98.23
45621;BME280;31345;51.522;10.702;2024-01-30T12:04:33;100227.63;;;6.92;98.17
45621;BME280;31345;51.522;10.702;2024-01-30T12:07:00;100217.28;;;6.90;98.13
45621;BME280;31345;51.522;10.702;2024-01-30T12:09:34;100218.13;;;6.91;99.12
45621;BME280;31345;51.522;10.702;2024-01-30T12:12:01;100214.38;;;6.73;97.99
45621;BME280;31345;51.522;10.702;2024-01-30T12:14:29;100213.25;;;6.80;98.93
45621;BME280;31345;51.522;10.702;2024-01-30T12:16:56;100214.03;;;6.84;100.00
45621;BME280;31345;51.522;10.702;2024-01-30T12:19:24;100216.53;;;6.87;100.00
45621;BME280;31345;51.522;10.702;2024-01-30T12:21:58;100208.22;;;6.75;100.00
45621;BME280;31345;51.522;10.702;2024-01-30T12:24:26;100199.06;;;6.63;100.00
45621;BME280;31345;51.522;10.702;2024-01-30T12:26:59;100203.50;;;6.60;100.00
45621;BME280;31345;51.522;10.702;2024-01-30T12:29:27;100205.91;;;6.66;100.00
45621;BME280;31345;51.522;10.702;2024-01-30T12:32:00;100208.97;;;6.79;100.00
45621;BME280;31345;51.522;10.702;2024-01-30T12:34:32;100215.13;;;6.76;100.00
45621;BME280;31345;51.522;10.702;2024-01-30T12:37:06;100212.44;;;6.79;100.00
45621;BME280;31345;51.522;10.702;2024-01-30T12:39:40;100215.56;;;6.89;100.00
45621;BME280;31345;51.522;10.702;2024-01-30T12:42:13;100221.59;;;6.90;100.00
45621;BME280;31345;51.522;10.702;2024-01-30T12:44:41;100225.16;;;6.87;100.00
45621;BME280;31345;51.522;10.702;2024-01-30T12:47:14;100231.44;;;6.80;100.00
45621;BME280;31345;51.522;10.702;2024-01-30T12:49:42;100223.91;;;6.72;100.00
45621;BME280;31345;51.522;10.702;2024-01-30T12:52:16;100230.25;;;6.63;100.00
45621;BME280;31345;51.522;10.702;2024-01-30T12:54:49;100226.25;;;6.53;100.00
45621;BME280;31345;51.522;10.702;2024-01-30T12:57:22;100216.41;;;6.63;100.00